Aérodrome :
LOGIN :

S'inscrire | Disclaimer

   EN    FR    IT 

 










Légende :    VFR   VFR Marginal   IFR   IFR Intensif   IFR Très Intensif
Visi : 
Plafond : 
>= 8 km
>= 3000ft
5 à 8 km
1000 à 3000 ft
1500m à 5 km
500 à 1000 ft
800 à 1500m
200 à 500 ft
< 800m
< 200 ft
Symboles :   Orages  Brouillard  Fortes neiges  Fortes précipitations  Vent > 20 kt
SIGMETs :   Divers  Orages  Givrage  Turbulence  Onde Orograph.  Cendres Volcan.






- Altitude de l'aérodrome : 741 ft
- Code IATA : JKG


ESGJ - Jönköping

DERNIER METAR :
  • 100020Z AUTO 27002KT 9999 NCD M03/M05 Q1023

METARs EXPIRÉS :
  • 092350Z AUTO 00000KT 9999 NCD M02/M04 Q1023
  • 092320Z AUTO 00000KT 9999 NCD M01/M05 Q1023
  • 092250Z AUTO 27002KT 9999 NCD M00/M04 Q1023
  • 092220Z 28005KT CAVOK M01/M05 Q1023
  • 092150Z 28005KT CAVOK 02/M04 Q1023

TAF TAF ESGJ
Valide du 09 à 21h jusqu'au 10 à 01h UTC


092030Z 0921/1001 29002KT CAVOK



MET'MAP, la Météo Aéronautique d'un coup d'oeil ! - Copyright ORBIFLY Décembre 2007 - Disclaimer

ORBIFLY MET'MAP TEAM :

Programmation & Développement : Alexandra Zaïnal
Sur une idée originale de : Baudouin d'Aumeries
Assistance à la programmation : Marc-Olivier Méhu
Soutien technique & logistique : Manuel Goepfert

Contact : metmap@orbifly.com




SOURCES & CREDITS :

   NOAA